sensor_id;sensor_type;location;lat;lon;timestamp;pressure;altitude;pressure_sealevel;temperature;humidity
40838;BME280;29632;49.168;9.848;2022-07-12T00:01:56;97491.56;;;22.60;42.26
40838;BME280;29632;49.168;9.848;2022-07-12T00:04:22;97498.50;;;22.61;42.27
40838;BME280;29632;49.168;9.848;2022-07-12T00:06:48;97496.06;;;22.60;42.31
40838;BME280;29632;49.168;9.848;2022-07-12T00:09:14;97495.44;;;22.58;42.57
40838;BME280;29632;49.168;9.848;2022-07-12T00:11:39;97499.09;;;22.57;42.45
40838;BME280;29632;49.168;9.848;2022-07-12T00:14:06;97501.16;;;22.55;42.67
40838;BME280;29632;49.168;9.848;2022-07-12T00:16:32;97493.38;;;22.53;42.61
40838;BME280;29632;49.168;9.848;2022-07-12T00:18:58;97500.75;;;22.51;42.66
40838;BME280;29632;49.168;9.848;2022-07-12T00:21:24;97501.13;;;22.48;42.92
40838;BME280;29632;49.168;9.848;2022-07-12T00:23:50;97507.69;;;22.46;42.93
40838;BME280;29632;49.168;9.848;2022-07-12T00:26:16;97510.72;;;22.42;42.96
40838;BME280;29632;49.168;9.848;2022-07-12T00:28:41;97505.81;;;22.39;42.97
40838;BME280;29632;49.168;9.848;2022-07-12T00:31:07;97508.47;;;22.39;42.81
40838;BME280;29632;49.168;9.848;2022-07-12T00:33:33;97511.53;;;22.36;42.99
40838;BME280;29632;49.168;9.848;2022-07-12T00:35:59;97508.25;;;22.34;43.15
40838;BME280;29632;49.168;9.848;2022-07-12T00:38:24;97502.94;;;22.34;43.14
40838;BME280;29632;49.168;9.848;2022-07-12T00:40:50;97500.28;;;22.34;43.10
40838;BME280;29632;49.168;9.848;2022-07-12T00:43:16;97491.91;;;22.31;43.21
40838;BME280;29632;49.168;9.848;2022-07-12T00:45:42;97496.63;;;22.29;43.39
40838;BME280;29632;49.168;9.848;2022-07-12T00:48:08;97496.97;;;22.25;43.36
40838;BME280;29632;49.168;9.848;2022-07-12T00:50:34;97491.88;;;22.24;43.38
40838;BME280;29632;49.168;9.848;2022-07-12T00:53:01;97494.72;;;22.22;43.47
40838;BME280;29632;49.168;9.848;2022-07-12T00:55:27;97489.66;;;22.21;43.52
40838;BME280;29632;49.168;9.848;2022-07-12T00:57:53;97492.28;;;22.21;43.44
40838;BME280;29632;49.168;9.848;2022-07-12T01:00:26;97490.66;;;22.20;43.45
40838;BME280;29632;49.168;9.848;2022-07-12T01:02:55;97485.53;;;22.18;43.47
40838;BME280;29632;49.168;9.848;2022-07-12T01:05:21;97489.44;;;22.16;43.64
40838;BME280;29632;49.168;9.848;2022-07-12T01:07:48;97484.50;;;22.13;43.52
40838;BME280;29632;49.168;9.848;2022-07-12T01:10:14;97487.38;;;22.11;43.74
40838;BME280;29632;49.168;9.848;2022-07-12T01:12:40;97489.22;;;22.11;43.66
40838;BME280;29632;49.168;9.848;2022-07-12T01:15:08;97488.78;;;22.07;43.66
40838;BME280;29632;49.168;9.848;2022-07-12T01:17:35;97494.91;;;22.08;43.80
40838;BME280;29632;49.168;9.848;2022-07-12T01:20:02;97493.44;;;22.05;43.80
40838;BME280;29632;49.168;9.848;2022-07-12T01:22:34;97490.81;;;22.05;43.90
40838;BME280;29632;49.168;9.848;2022-07-12T01:25:03;97494.28;;;22.05;43.79
40838;BME280;29632;49.168;9.848;2022-07-12T01:27:29;97494.50;;;22.04;43.76
40838;BME280;29632;49.168;9.848;2022-07-12T01:29:56;97498.34;;;22.01;43.98
40838;BME280;29632;49.168;9.848;2022-07-12T01:32:22;97493.22;;;22.00;44.00
40838;BME280;29632;49.168;9.848;2022-07-12T01:34:59;97490.16;;;21.96;44.11
40838;BME280;29632;49.168;9.848;2022-07-12T01:37:31;97490.16;;;21.96;43.89
40838;BME280;29632;49.168;9.848;2022-07-12T01:39:59;97493.84;;;21.95;43.81
40838;BME280;29632;49.168;9.848;2022-07-12T01:42:27;97502.63;;;21.96;44.16
40838;BME280;29632;49.168;9.848;2022-07-12T01:44:54;97494.03;;;21.94;43.94
40838;BME280;29632;49.168;9.848;2022-07-12T01:47:22;97494.84;;;21.94;44.11
40838;BME280;29632;49.168;9.848;2022-07-12T01:49:49;97493.22;;;21.93;43.91
40838;BME280;29632;49.168;9.848;2022-07-12T01:52:15;97495.84;;;21.86;43.83
40838;BME280;29632;49.168;9.848;2022-07-12T01:54:42;97495.22;;;21.78;43.87
40838;BME280;29632;49.168;9.848;2022-07-12T01:57:08;97497.03;;;21.71;43.88
40838;BME280;29632;49.168;9.848;2022-07-12T01:59:35;97490.25;;;21.68;43.86
40838;BME280;29632;49.168;9.848;2022-07-12T02:02:02;97490.88;;;21.63;43.89
40838;BME280;29632;49.168;9.848;2022-07-12T02:04:28;97489.19;;;21.56;43.69
40838;BME280;29632;49.168;9.848;2022-07-12T02:06:54;97492.00;;;21.47;43.99
40838;BME280;29632;49.168;9.848;2022-07-12T02:09:21;97489.50;;;21.39;43.85
40838;BME280;29632;49.168;9.848;2022-07-12T02:11:47;97489.88;;;21.36;43.92
40838;BME280;29632;49.168;9.848;2022-07-12T02:14:13;97485.59;;;21.35;43.86
40838;BME280;29632;49.168;9.848;2022-07-12T02:16:41;97488.84;;;21.30;43.99
40838;BME280;29632;49.168;9.848;2022-07-12T02:19:08;97487.38;;;21.28;43.96
40838;BME280;29632;49.168;9.848;2022-07-12T02:21:34;97486.75;;;21.26;43.81
40838;BME280;29632;49.168;9.848;2022-07-12T02:24:00;97489.78;;;21.23;44.04
40838;BME280;29632;49.168;9.848;2022-07-12T02:26:27;97485.72;;;21.20;43.97
40838;BME280;29632;49.168;9.848;2022-07-12T02:28:53;97485.91;;;21.19;43.95
40838;BME280;29632;49.168;9.848;2022-07-12T02:31:19;97489.34;;;21.19;43.94
40838;BME280;29632;49.168;9.848;2022-07-12T02:33:45;97484.25;;;21.11;43.99
40838;BME280;29632;49.168;9.848;2022-07-12T02:36:11;97485.19;;;21.03;43.89
40838;BME280;29632;49.168;9.848;2022-07-12T02:38:36;97479.66;;;20.98;43.67
40838;BME280;29632;49.168;9.848;2022-07-12T02:41:02;97480.63;;;20.90;43.73
40838;BME280;29632;49.168;9.848;2022-07-12T02:43:30;97470.16;;;20.82;43.94
40838;BME280;29632;49.168;9.848;2022-07-12T02:46:16;97478.47;;;20.72;43.96
40838;BME280;29632;49.168;9.848;2022-07-12T02:48:42;97478.03;;;20.69;43.96
40838;BME280;29632;49.168;9.848;2022-07-12T02:51:09;97480.16;;;20.59;43.86
40838;BME280;29632;49.168;9.848;2022-07-12T02:53:35;97476.16;;;20.48;43.76
40838;BME280;29632;49.168;9.848;2022-07-12T02:56:01;97482.66;;;20.45;43.78
40838;BME280;29632;49.168;9.848;2022-07-12T02:58:28;97483.88;;;20.43;43.53
40838;BME280;29632;49.168;9.848;2022-07-12T03:00:54;97480.97;;;20.37;43.63
40838;BME280;29632;49.168;9.848;2022-07-12T03:03:20;97485.81;;;20.34;43.74
40838;BME280;29632;49.168;9.848;2022-07-12T03:05:46;97481.72;;;20.31;43.64
40838;BME280;29632;49.168;9.848;2022-07-12T03:08:14;97482.72;;;20.30;43.65
40838;BME280;29632;49.168;9.848;2022-07-12T03:10:40;97480.47;;;20.27;43.75
40838;BME280;29632;49.168;9.848;2022-07-12T03:13:06;97487.56;;;20.27;43.82
40838;BME280;29632;49.168;9.848;2022-07-12T03:15:32;97493.06;;;20.25;43.54
40838;BME280;29632;49.168;9.848;2022-07-12T03:18:00;97492.81;;;20.20;43.85
40838;BME280;29632;49.168;9.848;2022-07-12T03:20:30;97497.44;;;20.18;43.88
40838;BME280;29632;49.168;9.848;2022-07-12T03:22:57;97502.72;;;20.18;43.71
40838;BME280;29632;49.168;9.848;2022-07-12T03:25:23;97502.72;;;20.18;43.87
40838;BME280;29632;49.168;9.848;2022-07-12T03:27:50;97498.66;;;20.15;43.80
40838;BME280;29632;49.168;9.848;2022-07-12T03:30:16;97500.84;;;20.12;43.94
40838;BME280;29632;49.168;9.848;2022-07-12T03:32:42;97504.41;;;20.04;43.89
40838;BME280;29632;49.168;9.848;2022-07-12T03:35:09;97509.66;;;19.97;43.65
40838;BME280;29632;49.168;9.848;2022-07-12T03:37:49;97503.47;;;19.90;44.00
40838;BME280;29632;49.168;9.848;2022-07-12T03:40:17;97504.63;;;19.88;43.93
40838;BME280;29632;49.168;9.848;2022-07-12T03:42:44;97498.72;;;19.86;43.76
40838;BME280;29632;49.168;9.848;2022-07-12T03:45:11;97503.38;;;19.84;43.72
40838;BME280;29632;49.168;9.848;2022-07-12T03:47:38;97507.81;;;19.83;43.82
40838;BME280;29632;49.168;9.848;2022-07-12T03:50:10;97502.75;;;19.82;43.96
40838;BME280;29632;49.168;9.848;2022-07-12T03:52:37;97508.84;;;19.82;44.01
40838;BME280;29632;49.168;9.848;2022-07-12T03:55:04;97509.66;;;19.83;44.21
40838;BME280;29632;49.168;9.848;2022-07-12T03:57:31;97505.56;;;19.80;44.22
40838;BME280;29632;49.168;9.848;2022-07-12T03:59:57;97503.28;;;19.77;44.10
40838;BME280;29632;49.168;9.848;2022-07-12T04:02:23;97504.28;;;19.76;44.25
40838;BME280;29632;49.168;9.848;2022-07-12T04:04:50;97501.00;;;19.74;44.36
40838;BME280;29632;49.168;9.848;2022-07-12T04:07:16;97506.44;;;19.72;44.46
40838;BME280;29632;49.168;9.848;2022-07-12T04:09:42;97502.81;;;19.73;44.48
40838;BME280;29632;49.168;9.848;2022-07-12T04:12:08;97508.75;;;19.75;44.15
40838;BME280;29632;49.168;9.848;2022-07-12T04:14:34;97506.75;;;19.77;44.46
40838;BME280;29632;49.168;9.848;2022-07-12T04:17:00;97512.41;;;19.74;44.87
40838;BME280;29632;49.168;9.848;2022-07-12T04:19:26;97520.88;;;19.70;44.81
40838;BME280;29632;49.168;9.848;2022-07-12T04:21:56;97515.94;;;19.67;44.86
40838;BME280;29632;49.168;9.848;2022-07-12T04:24:22;97521.41;;;19.65;44.72
40838;BME280;29632;49.168;9.848;2022-07-12T04:26:48;97523.41;;;19.63;44.60
40838;BME280;29632;49.168;9.848;2022-07-12T04:29:18;97527.50;;;19.66;44.58
40838;BME280;29632;49.168;9.848;2022-07-12T04:31:44;97538.91;;;19.66;44.60
40838;BME280;29632;49.168;9.848;2022-07-12T04:34:10;97542.53;;;19.65;44.82
40838;BME280;29632;49.168;9.848;2022-07-12T04:36:36;97541.56;;;19.66;44.82
40838;BME280;29632;49.168;9.848;2022-07-12T04:39:03;97545.63;;;19.69;45.21
40838;BME280;29632;49.168;9.848;2022-07-12T04:41:29;97542.44;;;19.73;44.94
40838;BME280;29632;49.168;9.848;2022-07-12T04:43:54;97538.47;;;19.77;44.95
40838;BME280;29632;49.168;9.848;2022-07-12T04:46:20;97537.28;;;19.80;45.01
40838;BME280;29632;49.168;9.848;2022-07-12T04:48:46;97542.84;;;19.85;45.17
40838;BME280;29632;49.168;9.848;2022-07-12T04:51:11;97538.38;;;19.86;45.46
40838;BME280;29632;49.168;9.848;2022-07-12T04:53:37;97532.72;;;19.89;45.30
40838;BME280;29632;49.168;9.848;2022-07-12T04:56:03;97537.81;;;19.90;45.80
40838;BME280;29632;49.168;9.848;2022-07-12T04:58:29;97541.47;;;19.89;45.89
40838;BME280;29632;49.168;9.848;2022-07-12T05:00:54;97546.38;;;19.92;46.02
40838;BME280;29632;49.168;9.848;2022-07-12T05:03:20;97544.00;;;19.97;46.13
40838;BME280;29632;49.168;9.848;2022-07-12T05:05:46;97547.09;;;20.01;46.17
40838;BME280;29632;49.168;9.848;2022-07-12T05:08:12;97542.72;;;20.08;46.08
40838;BME280;29632;49.168;9.848;2022-07-12T05:10:37;97537.50;;;20.15;46.27
40838;BME280;29632;49.168;9.848;2022-07-12T05:13:04;97532.47;;;20.20;46.19
40838;BME280;29632;49.168;9.848;2022-07-12T05:15:29;97543.75;;;20.29;46.06
40838;BME280;29632;49.168;9.848;2022-07-12T05:17:55;97542.63;;;20.38;45.96
40838;BME280;29632;49.168;9.848;2022-07-12T05:20:21;97548.81;;;20.45;45.97
40838;BME280;29632;49.168;9.848;2022-07-12T05:22:47;97547.84;;;20.53;45.95
40838;BME280;29632;49.168;9.848;2022-07-12T05:25:12;97548.56;;;20.62;46.03
40838;BME280;29632;49.168;9.848;2022-07-12T05:27:38;97553.75;;;20.70;45.90
40838;BME280;29632;49.168;9.848;2022-07-12T05:30:05;97555.25;;;20.79;46.08
40838;BME280;29632;49.168;9.848;2022-07-12T05:32:31;97559.44;;;20.88;45.94
40838;BME280;29632;49.168;9.848;2022-07-12T05:34:57;97557.47;;;20.97;45.99
40838;BME280;29632;49.168;9.848;2022-07-12T05:37:23;97560.78;;;21.06;46.00
40838;BME280;29632;49.168;9.848;2022-07-12T05:39:53;97562.47;;;21.13;46.13
40838;BME280;29632;49.168;9.848;2022-07-12T05:42:19;97553.34;;;21.23;45.97
40838;BME280;29632;49.168;9.848;2022-07-12T05:44:45;97563.81;;;21.31;45.89
40838;BME280;29632;49.168;9.848;2022-07-12T05:47:11;97557.34;;;21.40;45.93
40838;BME280;29632;49.168;9.848;2022-07-12T05:49:37;97554.78;;;21.47;45.98
40838;BME280;29632;49.168;9.848;2022-07-12T05:52:03;97565.03;;;21.57;45.91
40838;BME280;29632;49.168;9.848;2022-07-12T05:54:47;97567.53;;;21.65;45.97
40838;BME280;29632;49.168;9.848;2022-07-12T05:57:15;97569.22;;;21.73;46.08
40838;BME280;29632;49.168;9.848;2022-07-12T05:59:41;97567.22;;;21.81;46.11
40838;BME280;29632;49.168;9.848;2022-07-12T06:02:06;97566.03;;;21.91;46.07
40838;BME280;29632;49.168;9.848;2022-07-12T06:04:32;97568.53;;;21.99;46.00
40838;BME280;29632;49.168;9.848;2022-07-12T06:06:58;97569.97;;;22.08;46.10
40838;BME280;29632;49.168;9.848;2022-07-12T06:09:23;97565.72;;;22.14;46.03
40838;BME280;29632;49.168;9.848;2022-07-12T06:11:49;97566.56;;;22.21;45.94
40838;BME280;29632;49.168;9.848;2022-07-12T06:14:15;97572.56;;;22.30;45.81
40838;BME280;29632;49.168;9.848;2022-07-12T06:16:40;97574.81;;;22.39;46.00
40838;BME280;29632;49.168;9.848;2022-07-12T06:19:06;97585.88;;;22.50;45.89
40838;BME280;29632;49.168;9.848;2022-07-12T06:21:32;97579.53;;;22.57;45.60
40838;BME280;29632;49.168;9.848;2022-07-12T06:23:58;97579.38;;;22.66;45.67
40838;BME280;29632;49.168;9.848;2022-07-12T06:26:24;97587.16;;;22.74;45.52
40838;BME280;29632;49.168;9.848;2022-07-12T06:28:50;97594.28;;;22.80;45.65
40838;BME280;29632;49.168;9.848;2022-07-12T06:31:15;97595.94;;;22.88;45.68
40838;BME280;29632;49.168;9.848;2022-07-12T06:33:42;97593.91;;;22.96;45.38
40838;BME280;29632;49.168;9.848;2022-07-12T06:36:08;97591.28;;;23.03;45.20
40838;BME280;29632;49.168;9.848;2022-07-12T06:38:33;97591.91;;;23.12;45.05
40838;BME280;29632;49.168;9.848;2022-07-12T06:40:59;97594.75;;;23.17;44.91
40838;BME280;29632;49.168;9.848;2022-07-12T06:43:25;97595.34;;;23.26;44.70
40838;BME280;29632;49.168;9.848;2022-07-12T06:45:52;97595.34;;;23.32;44.66
40838;BME280;29632;49.168;9.848;2022-07-12T06:48:18;97595.97;;;23.41;44.47
40838;BME280;29632;49.168;9.848;2022-07-12T06:50:44;97589.84;;;23.47;44.46
40838;BME280;29632;49.168;9.848;2022-07-12T06:53:13;97594.09;;;23.55;44.43
40838;BME280;29632;49.168;9.848;2022-07-12T06:55:39;97595.75;;;23.63;44.04
40838;BME280;29632;49.168;9.848;2022-07-12T06:58:05;97589.59;;;23.69;43.91
40838;BME280;29632;49.168;9.848;2022-07-12T07:00:31;97591.63;;;23.73;44.00
40838;BME280;29632;49.168;9.848;2022-07-12T07:02:56;97597.78;;;23.81;44.16
40838;BME280;29632;49.168;9.848;2022-07-12T07:05:22;97601.03;;;23.89;43.87
40838;BME280;29632;49.168;9.848;2022-07-12T07:07:48;97596.50;;;23.97;44.01
40838;BME280;29632;49.168;9.848;2022-07-12T07:10:14;97595.69;;;24.03;43.95
40838;BME280;29632;49.168;9.848;2022-07-12T07:12:40;97598.28;;;24.09;43.88
40838;BME280;29632;49.168;9.848;2022-07-12T07:15:07;97595.59;;;24.16;43.52
40838;BME280;29632;49.168;9.848;2022-07-12T07:17:33;97608.47;;;24.26;43.70
40838;BME280;29632;49.168;9.848;2022-07-12T07:19:59;97604.56;;;24.28;43.33
40838;BME280;29632;49.168;9.848;2022-07-12T07:22:25;97607.63;;;24.32;43.04
40838;BME280;29632;49.168;9.848;2022-07-12T07:24:50;97610.25;;;24.39;43.09
40838;BME280;29632;49.168;9.848;2022-07-12T07:27:16;97621.72;;;24.39;42.80
40838;BME280;29632;49.168;9.848;2022-07-12T07:29:42;97623.75;;;24.44;42.51
40838;BME280;29632;49.168;9.848;2022-07-12T07:32:26;97627.78;;;24.53;42.92
40838;BME280;29632;49.168;9.848;2022-07-12T07:34:52;97627.97;;;24.65;42.24
40838;BME280;29632;49.168;9.848;2022-07-12T07:37:18;97626.91;;;24.73;42.00
40838;BME280;29632;49.168;9.848;2022-07-12T07:39:43;97630.34;;;24.80;41.79
40838;BME280;29632;49.168;9.848;2022-07-12T07:42:09;97625.97;;;24.92;41.90
40838;BME280;29632;49.168;9.848;2022-07-12T07:44:35;97626.31;;;25.02;41.49
40838;BME280;29632;49.168;9.848;2022-07-12T07:47:00;97627.47;;;25.13;41.64
40838;BME280;29632;49.168;9.848;2022-07-12T07:49:26;97629.63;;;25.23;41.68
40838;BME280;29632;49.168;9.848;2022-07-12T07:51:52;97634.56;;;25.26;41.90
40838;BME280;29632;49.168;9.848;2022-07-12T07:54:18;97635.16;;;25.28;41.93
40838;BME280;29632;49.168;9.848;2022-07-12T07:56:44;97630.81;;;25.34;41.56
40838;BME280;29632;49.168;9.848;2022-07-12T07:59:09;97632.19;;;25.43;41.46
40838;BME280;29632;49.168;9.848;2022-07-12T08:01:35;97630.06;;;25.52;41.34
40838;BME280;29632;49.168;9.848;2022-07-12T08:04:21;97621.78;;;25.60;41.00
40838;BME280;29632;49.168;9.848;2022-07-12T08:06:48;97619.03;;;25.67;40.99
40838;BME280;29632;49.168;9.848;2022-07-12T08:09:15;97623.06;;;25.76;40.99
40838;BME280;29632;49.168;9.848;2022-07-12T08:11:41;97615.78;;;25.83;40.62
40838;BME280;29632;49.168;9.848;2022-07-12T08:14:08;97621.44;;;25.93;40.87
40838;BME280;29632;49.168;9.848;2022-07-12T08:16:35;97617.47;;;26.03;40.81
40838;BME280;29632;49.168;9.848;2022-07-12T08:19:02;97611.81;;;26.11;40.69
40838;BME280;29632;49.168;9.848;2022-07-12T08:21:28;97613.22;;;26.13;40.71
40838;BME280;29632;49.168;9.848;2022-07-12T08:23:53;97612.94;;;26.22;40.44
40838;BME280;29632;49.168;9.848;2022-07-12T08:26:20;97608.53;;;26.27;40.13
40838;BME280;29632;49.168;9.848;2022-07-12T08:28:46;97615.53;;;26.28;40.03
40838;BME280;29632;49.168;9.848;2022-07-12T08:31:12;97613.22;;;26.32;40.03
40838;BME280;29632;49.168;9.848;2022-07-12T08:33:41;97615.19;;;26.36;40.02
40838;BME280;29632;49.168;9.848;2022-07-12T08:36:08;97613.25;;;26.44;39.89
40838;BME280;29632;49.168;9.848;2022-07-12T08:38:37;97612.94;;;26.52;39.58
40838;BME280;29632;49.168;9.848;2022-07-12T08:41:05;97619.09;;;26.52;39.64
40838;BME280;29632;49.168;9.848;2022-07-12T08:43:35;97620.16;;;26.51;39.39
40838;BME280;29632;49.168;9.848;2022-07-12T08:46:13;97634.66;;;26.55;39.46
40838;BME280;29632;49.168;9.848;2022-07-12T08:48:40;97635.63;;;26.61;39.16
40838;BME280;29632;49.168;9.848;2022-07-12T08:51:10;97635.56;;;26.68;39.33
40838;BME280;29632;49.168;9.848;2022-07-12T08:53:37;97626.44;;;26.75;39.22
40838;BME280;29632;49.168;9.848;2022-07-12T08:56:04;97631.66;;;26.82;39.00
40838;BME280;29632;49.168;9.848;2022-07-12T08:58:31;97634.25;;;26.89;38.64
40838;BME280;29632;49.168;9.848;2022-07-12T09:00:57;97629.88;;;26.94;38.38
40838;BME280;29632;49.168;9.848;2022-07-12T09:03:22;97639.03;;;26.99;38.15
40838;BME280;29632;49.168;9.848;2022-07-12T09:05:51;97637.31;;;27.04;38.10
40838;BME280;29632;49.168;9.848;2022-07-12T09:08:18;97643.00;;;27.08;37.97
40838;BME280;29632;49.168;9.848;2022-07-12T09:10:51;97637.56;;;27.15;37.99
40838;BME280;29632;49.168;9.848;2022-07-12T09:13:18;97640.59;;;27.18;37.94
40838;BME280;29632;49.168;9.848;2022-07-12T09:15:44;97647.09;;;27.22;37.92
40838;BME280;29632;49.168;9.848;2022-07-12T09:18:12;97649.56;;;27.24;37.81
40838;BME280;29632;49.168;9.848;2022-07-12T09:20:51;97641.53;;;27.24;37.75
40838;BME280;29632;49.168;9.848;2022-07-12T09:23:17;97641.22;;;27.32;37.62
40838;BME280;29632;49.168;9.848;2022-07-12T09:25:47;97641.47;;;27.42;37.76
40838;BME280;29632;49.168;9.848;2022-07-12T09:28:15;97636.59;;;27.51;37.54
40838;BME280;29632;49.168;9.848;2022-07-12T09:30:50;97628.69;;;27.56;37.34
40838;BME280;29632;49.168;9.848;2022-07-12T09:33:20;97638.78;;;27.66;37.05
40838;BME280;29632;49.168;9.848;2022-07-12T09:36:07;97630.66;;;27.73;37.00
40838;BME280;29632;49.168;9.848;2022-07-12T09:38:35;97628.66;;;27.80;36.79
40838;BME280;29632;49.168;9.848;2022-07-12T09:41:01;97629.72;;;27.91;36.87
40838;BME280;29632;49.168;9.848;2022-07-12T09:43:27;97626.47;;;28.00;36.56
40838;BME280;29632;49.168;9.848;2022-07-12T09:45:54;97634.94;;;28.09;36.38
40838;BME280;29632;49.168;9.848;2022-07-12T09:48:23;97633.41;;;28.13;35.59
40838;BME280;29632;49.168;9.848;2022-07-12T09:50:50;97632.38;;;28.14;35.59
40838;BME280;29632;49.168;9.848;2022-07-12T09:53:32;97634.25;;;28.14;35.56
40838;BME280;29632;49.168;9.848;2022-07-12T09:56:04;97645.66;;;28.21;35.65
40838;BME280;29632;49.168;9.848;2022-07-12T09:58:55;97638.88;;;28.30;35.42
40838;BME280;29632;49.168;9.848;2022-07-12T10:01:21;97643.66;;;28.28;36.15
40838;BME280;29632;49.168;9.848;2022-07-12T10:03:48;97638.72;;;28.37;35.55
40838;BME280;29632;49.168;9.848;2022-07-12T10:06:25;97632.06;;;28.39;35.24
40838;BME280;29632;49.168;9.848;2022-07-12T10:08:52;97626.59;;;28.46;35.31
40838;BME280;29632;49.168;9.848;2022-07-12T10:11:19;97627.63;;;28.57;35.27
40838;BME280;29632;49.168;9.848;2022-07-12T10:13:47;97627.47;;;28.63;34.85
40838;BME280;29632;49.168;9.848;2022-07-12T10:16:15;97631.22;;;28.62;34.22
40838;BME280;29632;49.168;9.848;2022-07-12T10:18:42;97631.69;;;28.59;34.22
40838;BME280;29632;49.168;9.848;2022-07-12T10:21:20;97635.97;;;28.60;34.40
40838;BME280;29632;49.168;9.848;2022-07-12T10:23:47;97628.91;;;28.54;34.88
40838;BME280;29632;49.168;9.848;2022-07-12T10:29:04;97629.81;;;28.60;34.45
40838;BME280;29632;49.168;9.848;2022-07-12T10:31:36;97628.31;;;28.64;34.62
40838;BME280;29632;49.168;9.848;2022-07-12T10:34:14;97628.75;;;28.73;34.24
40838;BME280;29632;49.168;9.848;2022-07-12T10:39:24;97625.97;;;28.85;33.83
40838;BME280;29632;49.168;9.848;2022-07-12T10:44:37;97617.69;;;28.86;33.42
40838;BME280;29632;49.168;9.848;2022-07-12T10:47:04;97608.78;;;28.97;33.53
40838;BME280;29632;49.168;9.848;2022-07-12T10:49:33;97608.97;;;29.08;33.14
40838;BME280;29632;49.168;9.848;2022-07-12T10:57:43;97603.69;;;29.30;32.58
40838;BME280;29632;49.168;9.848;2022-07-12T11:00:11;97606.38;;;29.30;32.64
40838;BME280;29632;49.168;9.848;2022-07-12T11:02:37;97607.03;;;29.37;32.85
40838;BME280;29632;49.168;9.848;2022-07-12T11:05:04;97603.28;;;29.38;32.35
40838;BME280;29632;49.168;9.848;2022-07-12T11:07:31;97607.34;;;29.41;31.97
40838;BME280;29632;49.168;9.848;2022-07-12T11:09:57;97602.16;;;29.34;32.19
40838;BME280;29632;49.168;9.848;2022-07-12T11:12:30;97609.72;;;29.37;32.30
40838;BME280;29632;49.168;9.848;2022-07-12T11:14:58;97606.13;;;29.48;32.11
40838;BME280;29632;49.168;9.848;2022-07-12T11:17:29;97602.22;;;29.56;31.87
40838;BME280;29632;49.168;9.848;2022-07-12T11:20:27;97608.97;;;29.59;32.12
40838;BME280;29632;49.168;9.848;2022-07-12T11:22:53;97612.53;;;29.64;31.88
40838;BME280;29632;49.168;9.848;2022-07-12T11:25:19;97610.47;;;29.71;32.09
40838;BME280;29632;49.168;9.848;2022-07-12T11:27:45;97613.91;;;29.84;32.25
40838;BME280;29632;49.168;9.848;2022-07-12T11:30:11;97616.72;;;29.94;31.79
40838;BME280;29632;49.168;9.848;2022-07-12T11:32:43;97608.81;;;30.04;31.83
40838;BME280;29632;49.168;9.848;2022-07-12T11:35:23;97614.25;;;30.09;31.44
40838;BME280;29632;49.168;9.848;2022-07-12T11:37:56;97609.19;;;30.13;31.38
40838;BME280;29632;49.168;9.848;2022-07-12T11:40:28;97611.69;;;30.20;31.03
40838;BME280;29632;49.168;9.848;2022-07-12T11:42:59;97612.84;;;30.29;30.95
40838;BME280;29632;49.168;9.848;2022-07-12T11:45:30;97604.94;;;30.39;31.05
40838;BME280;29632;49.168;9.848;2022-07-12T11:48:02;97608.00;;;30.48;30.57
40838;BME280;29632;49.168;9.848;2022-07-12T11:50:32;97612.59;;;30.53;30.55
40838;BME280;29632;49.168;9.848;2022-07-12T11:53:00;97604.28;;;30.54;30.39
40838;BME280;29632;49.168;9.848;2022-07-12T11:55:25;97607.28;;;30.58;29.90
40838;BME280;29632;49.168;9.848;2022-07-12T11:58:03;97591.09;;;30.53;29.72
40838;BME280;29632;49.168;9.848;2022-07-12T12:00:28;97587.59;;;30.52;30.08
40838;BME280;29632;49.168;9.848;2022-07-12T12:02:54;97587.84;;;30.50;29.63
40838;BME280;29632;49.168;9.848;2022-07-12T12:05:21;97595.91;;;30.50;29.53
40838;BME280;29632;49.168;9.848;2022-07-12T12:07:47;97596.78;;;30.56;29.62
40838;BME280;29632;49.168;9.848;2022-07-12T12:10:15;97602.50;;;30.65;29.71
40838;BME280;29632;49.168;9.848;2022-07-12T12:15:18;97585.38;;;30.71;29.62
40838;BME280;29632;49.168;9.848;2022-07-12T12:20:22;97586.88;;;30.89;29.35
40838;BME280;29632;49.168;9.848;2022-07-12T12:22:51;97593.47;;;30.98;29.63
40838;BME280;29632;49.168;9.848;2022-07-12T12:25:19;97595.41;;;31.08;29.28
40838;BME280;29632;49.168;9.848;2022-07-12T12:27:55;97585.25;;;31.15;29.49
40838;BME280;29632;49.168;9.848;2022-07-12T12:30:21;97579.91;;;31.20;28.87
40838;BME280;29632;49.168;9.848;2022-07-12T12:32:52;97571.06;;;31.25;28.63
40838;BME280;29632;49.168;9.848;2022-07-12T12:35:33;97572.69;;;31.31;28.66
40838;BME280;29632;49.168;9.848;2022-07-12T12:38:14;97567.03;;;31.28;28.23
40838;BME280;29632;49.168;9.848;2022-07-12T12:40:50;97560.84;;;31.27;28.50
40838;BME280;29632;49.168;9.848;2022-07-12T12:43:20;97564.38;;;31.33;28.63
40838;BME280;29632;49.168;9.848;2022-07-12T12:45:54;97561.13;;;31.31;28.31
40838;BME280;29632;49.168;9.848;2022-07-12T12:48:22;97559.53;;;31.35;28.02
40838;BME280;29632;49.168;9.848;2022-07-12T12:50:52;97566.31;;;31.37;28.72
40838;BME280;29632;49.168;9.848;2022-07-12T12:53:20;97572.56;;;31.48;28.55
40838;BME280;29632;49.168;9.848;2022-07-12T12:55:51;97565.91;;;31.56;28.25
40838;BME280;29632;49.168;9.848;2022-07-12T12:58:19;97557.31;;;31.64;27.94
40838;BME280;29632;49.168;9.848;2022-07-12T13:00:48;97553.59;;;31.70;27.87
40838;BME280;29632;49.168;9.848;2022-07-12T13:03:16;97558.75;;;31.77;27.35
40838;BME280;29632;49.168;9.848;2022-07-12T13:05:43;97558.75;;;31.77;27.82
40838;BME280;29632;49.168;9.848;2022-07-12T13:08:10;97556.88;;;31.83;27.30
40838;BME280;29632;49.168;9.848;2022-07-12T13:10:38;97571.19;;;31.88;27.56
40838;BME280;29632;49.168;9.848;2022-07-12T13:13:05;97568.50;;;31.93;27.36
40838;BME280;29632;49.168;9.848;2022-07-12T13:15:32;97571.75;;;31.95;27.29
40838;BME280;29632;49.168;9.848;2022-07-12T13:17:58;97575.53;;;31.99;27.18
40838;BME280;29632;49.168;9.848;2022-07-12T13:20:25;97563.16;;;32.04;27.00
40838;BME280;29632;49.168;9.848;2022-07-12T13:22:52;97566.97;;;32.08;27.13